sensor_id;sensor_type;location;lat;lon;timestamp;pressure;altitude;pressure_sealevel;temperature;humidity
8637;BME280;4356;49.068;8.658;2023-02-15T00:01:17;101346.72;;;18.35;31.66
8637;BME280;4356;49.068;8.658;2023-02-15T00:03:42;101348.78;;;18.33;31.67
8637;BME280;4356;49.068;8.658;2023-02-15T00:06:08;101344.34;;;18.32;31.66
8637;BME280;4356;49.068;8.658;2023-02-15T00:08:34;101343.69;;;18.30;31.79
8637;BME280;4356;49.068;8.658;2023-02-15T00:11:07;101345.78;;;18.28;31.70
8637;BME280;4356;49.068;8.658;2023-02-15T00:13:33;101334.88;;;18.28;31.68
8637;BME280;4356;49.068;8.658;2023-02-15T00:16:05;101340.31;;;18.28;31.47
8637;BME280;4356;49.068;8.658;2023-02-15T00:18:31;101329.97;;;18.23;31.78
8637;BME280;4356;49.068;8.658;2023-02-15T00:20:57;101336.28;;;18.24;31.66
8637;BME280;4356;49.068;8.658;2023-02-15T00:23:22;101329.31;;;18.21;31.76
8637;BME280;4356;49.068;8.658;2023-02-15T00:25:48;101312.03;;;18.14;31.64
8637;BME280;4356;49.068;8.658;2023-02-15T00:28:14;101302.38;;;18.12;31.87
8637;BME280;4356;49.068;8.658;2023-02-15T00:30:39;101319.47;;;18.20;31.57
8637;BME280;4356;49.068;8.658;2023-02-15T00:33:05;101324.06;;;18.20;31.80
8637;BME280;4356;49.068;8.658;2023-02-15T00:35:30;101318.81;;;18.18;31.65
8637;BME280;4356;49.068;8.658;2023-02-15T00:37:56;101318.34;;;18.15;31.69
8637;BME280;4356;49.068;8.658;2023-02-15T00:40:22;101316.28;;;18.17;31.83
8637;BME280;4356;49.068;8.658;2023-02-15T00:42:47;101322.53;;;18.17;31.79
8637;BME280;4356;49.068;8.658;2023-02-15T00:45:13;101318.69;;;18.12;31.97
8637;BME280;4356;49.068;8.658;2023-02-15T00:47:39;101323.78;;;18.15;31.59
8637;BME280;4356;49.068;8.658;2023-02-15T00:50:05;101312.31;;;18.05;31.76
8637;BME280;4356;49.068;8.658;2023-02-15T00:52:31;101326.31;;;18.16;31.77
8637;BME280;4356;49.068;8.658;2023-02-15T00:54:56;101326.50;;;18.15;32.01
8637;BME280;4356;49.068;8.658;2023-02-15T00:57:22;101301.41;;;18.05;32.05
8637;BME280;4356;49.068;8.658;2023-02-15T00:59:47;101314.97;;;18.13;31.81
8637;BME280;4356;49.068;8.658;2023-02-15T01:02:13;101310.44;;;18.05;31.83
8637;BME280;4356;49.068;8.658;2023-02-15T01:04:39;101307.19;;;18.10;31.83
8637;BME280;4356;49.068;8.658;2023-02-15T01:07:04;101306.50;;;18.08;31.99
8637;BME280;4356;49.068;8.658;2023-02-15T01:09:30;101307.72;;;18.05;32.00
8637;BME280;4356;49.068;8.658;2023-02-15T01:11:58;101305.00;;;18.05;31.69
8637;BME280;4356;49.068;8.658;2023-02-15T01:14:24;101305.00;;;18.05;31.63
8637;BME280;4356;49.068;8.658;2023-02-15T01:16:50;101290.31;;;17.92;32.15
8637;BME280;4356;49.068;8.658;2023-02-15T01:19:15;101296.44;;;17.94;32.01
8637;BME280;4356;49.068;8.658;2023-02-15T01:21:41;101310.16;;;18.00;31.89
8637;BME280;4356;49.068;8.658;2023-02-15T01:24:12;101324.03;;;18.05;31.80
8637;BME280;4356;49.068;8.658;2023-02-15T01:26:38;101322.38;;;18.04;32.10
8637;BME280;4356;49.068;8.658;2023-02-15T01:29:03;101318.97;;;18.02;31.83
8637;BME280;4356;49.068;8.658;2023-02-15T01:31:29;101314.25;;;17.96;32.17
8637;BME280;4356;49.068;8.658;2023-02-15T01:33:55;101320.19;;;18.00;32.17
8637;BME280;4356;49.068;8.658;2023-02-15T01:36:20;101308.34;;;17.93;31.79
8637;BME280;4356;49.068;8.658;2023-02-15T01:38:46;101324.63;;;18.01;31.70
8637;BME280;4356;49.068;8.658;2023-02-15T01:41:12;101317.66;;;17.98;31.56
8637;BME280;4356;49.068;8.658;2023-02-15T01:46:22;101319.72;;;17.96;31.83
8637;BME280;4356;49.068;8.658;2023-02-15T01:48:52;101316.81;;;17.98;31.75
8637;BME280;4356;49.068;8.658;2023-02-15T01:51:21;101309.56;;;17.90;31.74
8637;BME280;4356;49.068;8.658;2023-02-15T01:53:52;101312.94;;;17.92;32.04
8637;BME280;4356;49.068;8.658;2023-02-15T01:56:23;101314.81;;;17.92;31.69
8637;BME280;4356;49.068;8.658;2023-02-15T01:58:51;101295.19;;;17.82;32.15
8637;BME280;4356;49.068;8.658;2023-02-15T02:01:19;101296.72;;;17.84;31.75
8637;BME280;4356;49.068;8.658;2023-02-15T02:04:09;101311.06;;;17.93;31.74
8637;BME280;4356;49.068;8.658;2023-02-15T02:06:37;101304.31;;;17.89;31.76
8637;BME280;4356;49.068;8.658;2023-02-15T02:09:04;101294.09;;;17.91;31.71
8637;BME280;4356;49.068;8.658;2023-02-15T02:11:30;101294.47;;;17.88;31.65
8637;BME280;4356;49.068;8.658;2023-02-15T02:13:56;101291.75;;;17.88;31.72
8637;BME280;4356;49.068;8.658;2023-02-15T02:27:36;101275.97;;;17.83;31.87
8637;BME280;4356;49.068;8.658;2023-02-15T02:35:48;101276.34;;;17.80;31.92
8637;BME280;4356;49.068;8.658;2023-02-15T02:38:42;101278.22;;;17.80;31.80
8637;BME280;4356;49.068;8.658;2023-02-15T02:41:36;101280.94;;;17.80;31.90
8637;BME280;4356;49.068;8.658;2023-02-15T02:47:01;101246.13;;;17.61;31.79
8637;BME280;4356;49.068;8.658;2023-02-15T02:49:35;101274.16;;;17.76;32.13
8637;BME280;4356;49.068;8.658;2023-02-15T02:52:04;101264.16;;;17.76;31.97
8637;BME280;4356;49.068;8.658;2023-02-15T02:54:33;101250.25;;;17.71;31.92
8637;BME280;4356;49.068;8.658;2023-02-15T02:57:03;101257.84;;;17.76;32.01
8637;BME280;4356;49.068;8.658;2023-02-15T02:59:32;101258.91;;;17.75;31.85
8637;BME280;4356;49.068;8.658;2023-02-15T03:02:13;101240.41;;;17.70;31.72
8637;BME280;4356;49.068;8.658;2023-02-15T03:04:45;101238.72;;;17.69;32.01
8637;BME280;4356;49.068;8.658;2023-02-15T03:07:17;101232.16;;;17.64;31.86
8637;BME280;4356;49.068;8.658;2023-02-15T03:09:50;101243.97;;;17.71;32.10
8637;BME280;4356;49.068;8.658;2023-02-15T03:12:23;101246.88;;;17.69;31.83
8637;BME280;4356;49.068;8.658;2023-02-15T03:14:53;101240.13;;;17.65;31.78
8637;BME280;4356;49.068;8.658;2023-02-15T03:17:22;101258.41;;;17.71;32.00
8637;BME280;4356;49.068;8.658;2023-02-15T03:19:50;101249.78;;;17.68;32.06
8637;BME280;4356;49.068;8.658;2023-02-15T03:22:27;101248.94;;;17.67;31.69
8637;BME280;4356;49.068;8.658;2023-02-15T03:27:31;101248.28;;;17.65;31.71
8637;BME280;4356;49.068;8.658;2023-02-15T03:29:59;101238.31;;;17.58;31.78
8637;BME280;4356;49.068;8.658;2023-02-15T03:32:28;101237.09;;;17.60;31.97
8637;BME280;4356;49.068;8.658;2023-02-15T03:34:55;101253.38;;;17.68;32.11
8637;BME280;4356;49.068;8.658;2023-02-15T03:37:35;101248.94;;;17.67;32.10
8637;BME280;4356;49.068;8.658;2023-02-15T03:40:10;101249.13;;;17.66;32.14
8637;BME280;4356;49.068;8.658;2023-02-15T03:43:02;101246.94;;;17.61;32.06
8637;BME280;4356;49.068;8.658;2023-02-15T03:45:31;101246.47;;;17.58;32.12
8637;BME280;4356;49.068;8.658;2023-02-15T03:47:59;101252.38;;;17.61;32.16
8637;BME280;4356;49.068;8.658;2023-02-15T03:50:31;101248.00;;;17.60;31.98
8637;BME280;4356;49.068;8.658;2023-02-15T03:53:18;101247.31;;;17.58;31.97
8637;BME280;4356;49.068;8.658;2023-02-15T03:55:53;101248.38;;;17.57;32.03
8637;BME280;4356;49.068;8.658;2023-02-15T03:58:19;101246.66;;;17.56;32.02
8637;BME280;4356;49.068;8.658;2023-02-15T04:01:09;101260.06;;;17.58;31.68
8637;BME280;4356;49.068;8.658;2023-02-15T04:04:02;101258.56;;;17.55;31.70
8637;BME280;4356;49.068;8.658;2023-02-15T04:06:29;101252.66;;;17.52;32.08
8637;BME280;4356;49.068;8.658;2023-02-15T04:08:55;101252.47;;;17.53;31.95
8637;BME280;4356;49.068;8.658;2023-02-15T04:11:38;101256.19;;;17.52;31.95
8637;BME280;4356;49.068;8.658;2023-02-15T04:14:04;101248.59;;;17.48;32.07
8637;BME280;4356;49.068;8.658;2023-02-15T04:16:50;101252.84;;;17.50;31.98
8637;BME280;4356;49.068;8.658;2023-02-15T04:19:15;101253.19;;;17.47;32.09
8637;BME280;4356;49.068;8.658;2023-02-15T04:21:59;101257.25;;;17.51;32.18
8637;BME280;4356;49.068;8.658;2023-02-15T04:24:43;101258.63;;;17.47;32.13
8637;BME280;4356;49.068;8.658;2023-02-15T04:27:27;101255.91;;;17.47;32.33
8637;BME280;4356;49.068;8.658;2023-02-15T04:29:53;101255.91;;;17.47;31.75
8637;BME280;4356;49.068;8.658;2023-02-15T04:32:18;101253.72;;;17.42;32.20
8637;BME280;4356;49.068;8.658;2023-02-15T04:34:44;101246.38;;;17.43;32.00
8637;BME280;4356;49.068;8.658;2023-02-15T04:37:09;101242.66;;;17.44;32.36
8637;BME280;4356;49.068;8.658;2023-02-15T04:39:35;101249.28;;;17.41;32.54
8637;BME280;4356;49.068;8.658;2023-02-15T04:42:01;101239.28;;;17.42;32.38
8637;BME280;4356;49.068;8.658;2023-02-15T04:44:30;101246.38;;;17.43;32.29
8637;BME280;4356;49.068;8.658;2023-02-15T04:46:55;101229.97;;;17.36;32.51
8637;BME280;4356;49.068;8.658;2023-02-15T04:49:21;101226.78;;;17.33;32.19
8637;BME280;4356;49.068;8.658;2023-02-15T04:51:46;101213.72;;;17.28;32.46
8637;BME280;4356;49.068;8.658;2023-02-15T04:54:12;101211.00;;;17.28;31.85
8637;BME280;4356;49.068;8.658;2023-02-15T04:56:37;101219.50;;;17.33;32.49
8637;BME280;4356;49.068;8.658;2023-02-15T04:59:04;101225.75;;;17.34;32.41
8637;BME280;4356;49.068;8.658;2023-02-15T05:01:30;101229.59;;;17.39;32.27
8637;BME280;4356;49.068;8.658;2023-02-15T05:03:56;101218.81;;;17.31;32.17
8637;BME280;4356;49.068;8.658;2023-02-15T05:06:22;101223.03;;;17.34;31.96
8637;BME280;4356;49.068;8.658;2023-02-15T05:08:47;101213.91;;;17.27;32.00
8637;BME280;4356;49.068;8.658;2023-02-15T05:11:13;101233.56;;;17.37;32.04
8637;BME280;4356;49.068;8.658;2023-02-15T05:13:39;101216.44;;;17.28;32.25
8637;BME280;4356;49.068;8.658;2023-02-15T05:16:05;101226.97;;;17.31;32.11
8637;BME280;4356;49.068;8.658;2023-02-15T05:18:30;101214.97;;;17.26;32.17
8637;BME280;4356;49.068;8.658;2023-02-15T05:20:56;101203.97;;;17.19;32.58
8637;BME280;4356;49.068;8.658;2023-02-15T05:23:21;101209.72;;;17.24;32.03
8637;BME280;4356;49.068;8.658;2023-02-15T05:25:50;101222.56;;;17.30;32.33
8637;BME280;4356;49.068;8.658;2023-02-15T05:28:36;101226.97;;;17.31;32.17
8637;BME280;4356;49.068;8.658;2023-02-15T05:33:29;101227.69;;;17.25;32.31
8637;BME280;4356;49.068;8.658;2023-02-15T05:35:55;101223.31;;;17.24;32.45
8637;BME280;4356;49.068;8.658;2023-02-15T05:38:20;101239.75;;;17.23;32.20
8637;BME280;4356;49.068;8.658;2023-02-15T05:40:46;101240.59;;;17.23;32.28
8637;BME280;4356;49.068;8.658;2023-02-15T05:43:11;101239.75;;;17.23;32.54
8637;BME280;4356;49.068;8.658;2023-02-15T05:45:37;101232.84;;;17.20;32.27
8637;BME280;4356;49.068;8.658;2023-02-15T05:48:03;101246.59;;;17.19;32.16
8637;BME280;4356;49.068;8.658;2023-02-15T05:50:28;101234.69;;;17.20;32.28
8637;BME280;4356;49.068;8.658;2023-02-15T05:52:54;101238.78;;;17.16;32.29
8637;BME280;4356;49.068;8.658;2023-02-15T05:55:19;101238.78;;;17.16;32.11
8637;BME280;4356;49.068;8.658;2023-02-15T05:57:45;101249.66;;;17.16;32.36
8637;BME280;4356;49.068;8.658;2023-02-15T06:00:12;101238.78;;;17.16;32.05
8637;BME280;4356;49.068;8.658;2023-02-15T06:02:39;101230.53;;;17.09;32.11
8637;BME280;4356;49.068;8.658;2023-02-15T06:05:06;101235.78;;;17.11;32.25
8637;BME280;4356;49.068;8.658;2023-02-15T06:07:32;101254.75;;;17.19;32.08
8637;BME280;4356;49.068;8.658;2023-02-15T06:09:57;101242.19;;;17.18;32.15
8637;BME280;4356;49.068;8.658;2023-02-15T06:12:23;101242.47;;;17.23;32.24
8637;BME280;4356;49.068;8.658;2023-02-15T06:14:49;101250.28;;;17.26;32.04
8637;BME280;4356;49.068;8.658;2023-02-15T06:17:15;101256.88;;;17.31;32.00
8637;BME280;4356;49.068;8.658;2023-02-15T06:19:41;101251.78;;;17.28;31.96
8637;BME280;4356;49.068;8.658;2023-02-15T06:22:07;101266.16;;;17.37;32.06
8637;BME280;4356;49.068;8.658;2023-02-15T06:24:33;101273.47;;;17.36;32.08
8637;BME280;4356;49.068;8.658;2023-02-15T06:26:58;101272.94;;;17.41;32.09
8637;BME280;4356;49.068;8.658;2023-02-15T06:29:24;101268.31;;;17.41;31.76
8637;BME280;4356;49.068;8.658;2023-02-15T06:31:49;101281.38;;;17.46;31.70
8637;BME280;4356;49.068;8.658;2023-02-15T06:34:15;101276.13;;;17.44;31.72
8637;BME280;4356;49.068;8.658;2023-02-15T06:36:41;101272.56;;;17.44;31.73
8637;BME280;4356;49.068;8.658;2023-02-15T06:39:07;101253.91;;;17.41;31.80
8637;BME280;4356;49.068;8.658;2023-02-15T06:41:32;101267.94;;;17.53;31.82
8637;BME280;4356;49.068;8.658;2023-02-15T06:43:58;101272.97;;;17.56;31.82
8637;BME280;4356;49.068;8.658;2023-02-15T06:46:23;101275.53;;;17.57;31.70
8637;BME280;4356;49.068;8.658;2023-02-15T06:48:49;101270.13;;;17.57;31.73
8637;BME280;4356;49.068;8.658;2023-02-15T06:51:15;101286.03;;;17.60;31.79
8637;BME280;4356;49.068;8.658;2023-02-15T06:53:40;101286.00;;;17.68;31.83
8637;BME280;4356;49.068;8.658;2023-02-15T06:56:09;101278.41;;;17.78;31.97
8637;BME280;4356;49.068;8.658;2023-02-15T06:58:40;101285.47;;;18.02;31.52
8637;BME280;4356;49.068;8.658;2023-02-15T07:01:09;101276.03;;;18.27;31.29
8637;BME280;4356;49.068;8.658;2023-02-15T07:03:37;101285.72;;;18.59;30.71
8637;BME280;4356;49.068;8.658;2023-02-15T07:06:05;101284.38;;;18.84;30.30
8637;BME280;4356;49.068;8.658;2023-02-15T07:08:34;101284.47;;;19.11;30.13
8637;BME280;4356;49.068;8.658;2023-02-15T07:11:01;101280.56;;;19.35;30.13
8637;BME280;4356;49.068;8.658;2023-02-15T07:13:46;101282.25;;;19.57;29.78
8637;BME280;4356;49.068;8.658;2023-02-15T07:16:12;101280.13;;;19.80;29.30
8637;BME280;4356;49.068;8.658;2023-02-15T07:18:38;101275.06;;;19.98;29.45
8637;BME280;4356;49.068;8.658;2023-02-15T07:21:07;101278.78;;;20.18;28.80
8637;BME280;4356;49.068;8.658;2023-02-15T07:23:39;101284.81;;;20.41;28.67
8637;BME280;4356;49.068;8.658;2023-02-15T07:26:07;101287.88;;;20.60;28.58
8637;BME280;4356;49.068;8.658;2023-02-15T07:28:34;101280.56;;;20.73;28.32
8637;BME280;4356;49.068;8.658;2023-02-15T07:31:03;101283.56;;;20.91;28.07
8637;BME280;4356;49.068;8.658;2023-02-15T07:33:33;101279.69;;;21.07;27.71
8637;BME280;4356;49.068;8.658;2023-02-15T07:36:01;101278.25;;;21.24;27.65
8637;BME280;4356;49.068;8.658;2023-02-15T07:38:33;101290.06;;;21.37;27.39
8637;BME280;4356;49.068;8.658;2023-02-15T07:41:05;101301.00;;;21.50;27.12
8637;BME280;4356;49.068;8.658;2023-02-15T07:43:34;101297.22;;;21.58;26.85
8637;BME280;4356;49.068;8.658;2023-02-15T07:46:00;101295.34;;;21.65;26.86
8637;BME280;4356;49.068;8.658;2023-02-15T07:48:26;101295.34;;;21.72;26.96
8637;BME280;4356;49.068;8.658;2023-02-15T07:50:52;101292.63;;;21.72;26.80
8637;BME280;4356;49.068;8.658;2023-02-15T07:53:18;101284.63;;;21.70;26.89
8637;BME280;4356;49.068;8.658;2023-02-15T07:55:44;101301.25;;;21.75;26.69
8637;BME280;4356;49.068;8.658;2023-02-15T07:58:09;101289.88;;;21.72;26.70
8637;BME280;4356;49.068;8.658;2023-02-15T08:00:35;101284.19;;;21.73;26.79
8637;BME280;4356;49.068;8.658;2023-02-15T08:03:25;101292.41;;;21.73;26.38
8637;BME280;4356;49.068;8.658;2023-02-15T08:05:58;101291.56;;;21.73;26.65
8637;BME280;4356;49.068;8.658;2023-02-15T08:08:28;101255.78;;;21.55;26.55
8637;BME280;4356;49.068;8.658;2023-02-15T08:13:45;101273.03;;;21.62;26.68
8637;BME280;4356;49.068;8.658;2023-02-15T08:16:29;101262.94;;;21.56;26.92
8637;BME280;4356;49.068;8.658;2023-02-15T08:18:55;101273.88;;;21.56;26.75
8637;BME280;4356;49.068;8.658;2023-02-15T08:21:23;101275.13;;;21.53;26.96
8637;BME280;4356;49.068;8.658;2023-02-15T08:23:50;101273.47;;;21.52;27.10
8637;BME280;4356;49.068;8.658;2023-02-15T08:26:16;101274.28;;;21.52;27.09
8637;BME280;4356;49.068;8.658;2023-02-15T08:28:42;101271.34;;;21.47;27.16
8637;BME280;4356;49.068;8.658;2023-02-15T08:31:10;101268.38;;;21.49;27.12
8637;BME280;4356;49.068;8.658;2023-02-15T08:33:38;101265.44;;;21.50;27.20
8637;BME280;4356;49.068;8.658;2023-02-15T08:36:09;101268.00;;;21.52;27.16
8637;BME280;4356;49.068;8.658;2023-02-15T08:38:36;101253.03;;;21.48;27.02
8637;BME280;4356;49.068;8.658;2023-02-15T08:43:37;101258.31;;;21.49;26.97
8637;BME280;4356;49.068;8.658;2023-02-15T08:46:04;101261.47;;;21.53;26.89
8637;BME280;4356;49.068;8.658;2023-02-15T08:48:30;101258.09;;;21.51;26.85
8637;BME280;4356;49.068;8.658;2023-02-15T08:50:56;101254.50;;;21.50;26.90
8637;BME280;4356;49.068;8.658;2023-02-15T08:53:21;101260.44;;;21.54;27.21
8637;BME280;4356;49.068;8.658;2023-02-15T08:55:54;101242.94;;;21.42;27.40
8637;BME280;4356;49.068;8.658;2023-02-15T08:58:20;101237.66;;;21.40;27.42
8637;BME280;4356;49.068;8.658;2023-02-15T09:00:45;101232.00;;;21.42;27.44
8637;BME280;4356;49.068;8.658;2023-02-15T09:03:11;101245.69;;;21.55;27.70
8637;BME280;4356;49.068;8.658;2023-02-15T09:05:37;101246.94;;;21.52;27.37
8637;BME280;4356;49.068;8.658;2023-02-15T09:08:02;101254.72;;;21.56;27.53
8637;BME280;4356;49.068;8.658;2023-02-15T09:10:28;101246.31;;;21.57;27.21
8637;BME280;4356;49.068;8.658;2023-02-15T09:12:53;101249.25;;;21.56;27.37
8637;BME280;4356;49.068;8.658;2023-02-15T09:15:19;101248.19;;;21.57;27.50
8637;BME280;4356;49.068;8.658;2023-02-15T09:17:44;101246.31;;;21.57;27.30
8637;BME280;4356;49.068;8.658;2023-02-15T09:20:10;101248.63;;;21.60;27.48
8637;BME280;4356;49.068;8.658;2023-02-15T09:22:36;101235.16;;;21.52;27.44
8637;BME280;4356;49.068;8.658;2023-02-15T09:25:01;101245.66;;;21.62;27.28
8637;BME280;4356;49.068;8.658;2023-02-15T09:27:27;101238.31;;;21.62;27.37
8637;BME280;4356;49.068;8.658;2023-02-15T09:29:53;101235.34;;;21.64;27.40
8637;BME280;4356;49.068;8.658;2023-02-15T09:32:18;101220.44;;;21.53;27.53
8637;BME280;4356;49.068;8.658;2023-02-15T09:34:44;101227.16;;;21.64;27.30
8637;BME280;4356;49.068;8.658;2023-02-15T09:37:10;101226.50;;;21.62;27.21
8637;BME280;4356;49.068;8.658;2023-02-15T09:39:37;101232.41;;;21.65;27.52
8637;BME280;4356;49.068;8.658;2023-02-15T09:42:30;101233.47;;;21.64;27.28
8637;BME280;4356;49.068;8.658;2023-02-15T09:45:13;101237.28;;;21.63;27.28
8637;BME280;4356;49.068;8.658;2023-02-15T09:48:03;101224.63;;;21.62;27.32
8637;BME280;4356;49.068;8.658;2023-02-15T09:56:38;101235.78;;;21.67;27.71
8637;BME280;4356;49.068;8.658;2023-02-15T10:13:01;101236.44;;;21.76;27.69
8637;BME280;4356;49.068;8.658;2023-02-15T10:21:19;101237.06;;;21.84;nan
8637;BME280;4356;49.068;8.658;2023-02-15T10:23:57;101236.00;;;21.85;27.78
8637;BME280;4356;49.068;8.658;2023-02-15T10:26:44;101238.34;;;21.88;27.53
8637;BME280;4356;49.068;8.658;2023-02-15T10:32:04;101234.31;;;21.91;27.90
8637;BME280;4356;49.068;8.658;2023-02-15T10:34:38;101239.38;;;21.94;27.77
8637;BME280;4356;49.068;8.658;2023-02-15T10:42:49;101244.63;;;22.02;27.85
8637;BME280;4356;49.068;8.658;2023-02-15T10:45:45;101237.69;;;21.99;27.39
8637;BME280;4356;49.068;8.658;2023-02-15T10:51:45;101233.88;;;22.07;27.51
8637;BME280;4356;49.068;8.658;2023-02-15T10:56:48;101229.88;;;22.09;27.25
8637;BME280;4356;49.068;8.658;2023-02-15T10:59:30;101232.63;;;22.09;27.27
8637;BME280;4356;49.068;8.658;2023-02-15T11:02:02;101224.19;;;22.11;27.65
8637;BME280;4356;49.068;8.658;2023-02-15T11:04:45;101217.44;;;22.13;27.66
8637;BME280;4356;49.068;8.658;2023-02-15T11:07:23;101224.38;;;22.16;27.50
8637;BME280;4356;49.068;8.658;2023-02-15T11:09:56;101213.22;;;22.11;27.48
8637;BME280;4356;49.068;8.658;2023-02-15T11:12:28;101215.34;;;22.15;27.63
8637;BME280;4356;49.068;8.658;2023-02-15T11:17:53;101210.28;;;22.19;27.69
8637;BME280;4356;49.068;8.658;2023-02-15T11:20:29;101223.31;;;22.23;27.67
8637;BME280;4356;49.068;8.658;2023-02-15T11:22:56;101206.69;;;22.18;27.60
8637;BME280;4356;49.068;8.658;2023-02-15T11:25:32;101208.56;;;22.24;27.74
8637;BME280;4356;49.068;8.658;2023-02-15T11:28:00;101216.56;;;22.26;27.78
8637;BME280;4356;49.068;8.658;2023-02-15T11:30:43;101197.41;;;22.26;27.76
8637;BME280;4356;49.068;8.658;2023-02-15T11:33:18;101190.22;;;22.25;27.78
8637;BME280;4356;49.068;8.658;2023-02-15T11:35:59;101191.06;;;22.32;27.59
8637;BME280;4356;49.068;8.658;2023-02-15T11:38:28;101175.06;;;22.29;27.64
8637;BME280;4356;49.068;8.658;2023-02-15T11:41:08;101181.56;;;22.34;27.73
8637;BME280;4356;49.068;8.658;2023-02-15T11:46:15;101164.09;;;22.35;27.52
8637;BME280;4356;49.068;8.658;2023-02-15T11:48:42;101157.97;;;22.33;27.60
8637;BME280;4356;49.068;8.658;2023-02-15T11:51:17;101159.19;;;22.37;27.78
8637;BME280;4356;49.068;8.658;2023-02-15T11:53:45;101160.06;;;22.38;27.84
8637;BME280;4356;49.068;8.658;2023-02-15T11:56:19;101152.69;;;22.38;27.75
8637;BME280;4356;49.068;8.658;2023-02-15T11:58:59;101151.63;;;22.39;27.86
8637;BME280;4356;49.068;8.658;2023-02-15T12:01:31;101149.50;;;22.41;28.06
8637;BME280;4356;49.068;8.658;2023-02-15T12:04:04;101157.91;;;22.46;27.96
8637;BME280;4356;49.068;8.658;2023-02-15T12:06:37;101150.53;;;22.47;28.08
8637;BME280;4356;49.068;8.658;2023-02-15T12:09:33;101142.31;;;22.47;28.05
8637;BME280;4356;49.068;8.658;2023-02-15T12:12:26;101136.41;;;22.57;27.96
8637;BME280;4356;49.068;8.658;2023-02-15T12:14:57;101122.47;;;22.58;27.85
8637;BME280;4356;49.068;8.658;2023-02-15T12:17:25;101122.88;;;22.62;28.05
8637;BME280;4356;49.068;8.658;2023-02-15T12:19:56;101135.03;;;22.72;28.08
8637;BME280;4356;49.068;8.658;2023-02-15T12:22:25;101128.28;;;22.75;27.92
8637;BME280;4356;49.068;8.658;2023-02-15T12:24:56;101130.34;;;22.79;27.88
8637;BME280;4356;49.068;8.658;2023-02-15T12:27:29;101118.16;;;22.75;27.93
8637;BME280;4356;49.068;8.658;2023-02-15T12:32:35;101113.47;;;22.82;27.72
8637;BME280;4356;49.068;8.658;2023-02-15T12:35:09;101113.47;;;22.82;27.54
8637;BME280;4356;49.068;8.658;2023-02-15T12:37:38;101107.78;;;22.84;27.77
8637;BME280;4356;49.068;8.658;2023-02-15T12:40:25;101104.19;;;22.83;28.03
8637;BME280;4356;49.068;8.658;2023-02-15T12:42:53;101094.06;;;22.84;27.88
8637;BME280;4356;49.068;8.658;2023-02-15T12:45:33;101101.41;;;22.90;27.73
8637;BME280;4356;49.068;8.658;2023-02-15T12:48:17;101108.78;;;22.89;27.64
8637;BME280;4356;49.068;8.658;2023-02-15T12:50:45;101097.19;;;22.87;27.96
8637;BME280;4356;49.068;8.658;2023-02-15T12:53:18;101103.94;;;22.91;27.91
8637;BME280;4356;49.068;8.658;2023-02-15T12:56:01;101086.84;;;22.89;28.13
8637;BME280;4356;49.068;8.658;2023-02-15T12:58:36;101092.72;;;22.93;28.21
8637;BME280;4356;49.068;8.658;2023-02-15T13:01:09;101090.63;;;22.95;27.91
8637;BME280;4356;49.068;8.658;2023-02-15T13:06:23;101083.44;;;22.94;27.65
8637;BME280;4356;49.068;8.658;2023-02-15T13:08:51;101075.66;;;22.91;27.88
8637;BME280;4356;49.068;8.658;2023-02-15T13:11:29;101084.66;;;22.98;27.60
8637;BME280;4356;49.068;8.658;2023-02-15T13:14:31;101084.44;;;22.99;27.59
8637;BME280;4356;49.068;8.658;2023-02-15T13:17:00;101078.16;;;22.99;27.55
8637;BME280;4356;49.068;8.658;2023-02-15T13:19:34;101071.59;;;23.00;27.82
8637;BME280;4356;49.068;8.658;2023-02-15T13:22:20;101066.50;;;23.03;27.75
8637;BME280;4356;49.068;8.658;2023-02-15T13:24:48;101053.63;;;23.04;27.73
8637;BME280;4356;49.068;8.658;2023-02-15T13:27:18;101053.78;;;23.09;27.77
8637;BME280;4356;49.068;8.658;2023-02-15T13:29:49;101052.75;;;23.10;27.91
8637;BME280;4356;49.068;8.658;2023-02-15T13:32:28;101048.53;;;23.07;27.98
8637;BME280;4356;49.068;8.658;2023-02-15T13:34:57;101044.91;;;23.13;27.79
8637;BME280;4356;49.068;8.658;2023-02-15T13:40:10;101041.22;;;23.19;28.20
8637;BME280;4356;49.068;8.658;2023-02-15T13:45:45;101017.03;;;23.16;28.53
8637;BME280;4356;49.068;8.658;2023-02-15T13:48:44;101026.88;;;23.24;28.39
8637;BME280;4356;49.068;8.658;2023-02-15T13:51:53;101024.72;;;23.26;28.26
8637;BME280;4356;49.068;8.658;2023-02-15T14:00:35;101017.56;;;23.25;28.41
8637;BME280;4356;49.068;8.658;2023-02-15T14:11:12;101020.28;;;23.31;28.61
8637;BME280;4356;49.068;8.658;2023-02-15T14:24:29;101027.81;;;23.36;28.11
8637;BME280;4356;49.068;8.658;2023-02-15T14:29:59;101025.84;;;23.43;27.94
8637;BME280;4356;49.068;8.658;2023-02-15T14:32:39;101029.19;;;23.45;28.56
8637;BME280;4356;49.068;8.658;2023-02-15T14:35:18;101027.91;;;23.48;28.62
8637;BME280;4356;49.068;8.658;2023-02-15T14:37:55;101024.09;;;23.48;28.51
8637;BME280;4356;49.068;8.658;2023-02-15T14:43:32;101028.06;;;23.53;28.74
8637;BME280;4356;49.068;8.658;2023-02-15T14:48:45;101025.09;;;23.54;28.51
8637;BME280;4356;49.068;8.658;2023-02-15T14:54:09;101013.34;;;23.47;29.17
8637;BME280;4356;49.068;8.658;2023-02-15T14:56:35;101011.31;;;23.42;29.87
8637;BME280;4356;49.068;8.658;2023-02-15T14:59:24;101015.94;;;23.42;30.68
8637;BME280;4356;49.068;8.658;2023-02-15T15:02:14;101018.31;;;23.38;30.91
8637;BME280;4356;49.068;8.658;2023-02-15T15:04:44;101014.34;;;23.34;30.94
8637;BME280;4356;49.068;8.658;2023-02-15T15:07:20;101009.50;;;23.30;31.14
8637;BME280;4356;49.068;8.658;2023-02-15T15:12:47;101006.06;;;23.16;30.72
8637;BME280;4356;49.068;8.658;2023-02-15T15:15:34;101016.31;;;23.21;31.40
8637;BME280;4356;49.068;8.658;2023-02-15T15:18:01;101014.28;;;23.16;31.01
8637;BME280;4356;49.068;8.658;2023-02-15T15:20:49;101004.66;;;23.07;30.93
8637;BME280;4356;49.068;8.658;2023-02-15T15:25:52;101008.69;;;23.05;30.70
8637;BME280;4356;49.068;8.658;2023-02-15T15:42:32;100997.91;;;22.85;28.92
8637;BME280;4356;49.068;8.658;2023-02-15T15:47:21;100990.56;;;22.79;28.39
8637;BME280;4356;49.068;8.658;2023-02-15T15:49:56;101001.31;;;22.81;28.61
8637;BME280;4356;49.068;8.658;2023-02-15T15:52:22;100999.25;;;22.76;28.51
8637;BME280;4356;49.068;8.658;2023-02-15T15:54:52;100995.25;;;22.72;28.63
8637;BME280;4356;49.068;8.658;2023-02-15T15:57:29;100993.59;;;22.71;28.48